Time;durP1;ratioP1;P1;durP2;ratioP2;P2;SDS_P1;SDS_P2;PMS_P1;PMS_P2;Temp;Humidity;BMP_temperature;BMP_pressure;BME280_temperature;BME280_humidity;BME280_pressure;Samples;Min_cycle;Max_cycle;Signal;HPM_P1;HPM_P2
2023/10/14 00:02:30;;;;;;;14.45;6.60;;;;;;;;;;10296170;28;20060;-64
2023/10/14 00:07:30;;;;;;;14.32;8.90;;;;;;;;;;10292454;28;20073;-65
2023/10/14 00:12:28;;;;;;;23.58;8.70;;;;;;;;;;10293975;28;20076;-65
2023/10/14 00:17:34;;;;;;;14.23;5.38;;;;;;;;;;10294202;28;20166;-65
2023/10/14 00:22:38;;;;;;;14.13;5.70;;;;;;;;;;10293751;28;20076;-65
2023/10/14 00:27:37;;;;;;;8.70;5.37;;;;;;;;;;10291609;28;20079;-65
2023/10/14 00:32:35;;;;;;;9.55;5.43;;;;;;;;;;10293257;28;20075;-65
2023/10/14 00:37:36;;;;;;;15.32;6.05;;;;;;;;;;10291842;28;20078;-64
2023/10/14 00:42:34;;;;;;;8.52;5.22;;;;;;;;;;10294611;28;20079;-65
2023/10/14 00:47:34;;;;;;;9.73;5.53;;;;;;;;;;10293000;28;20076;-65
2023/10/14 00:52:33;;;;;;;12.35;5.75;;;;;;;;;;10289589;28;20072;-65
2023/10/14 00:57:39;;;;;;;8.68;5.55;;;;;;;;;;10289692;28;20551;-64
2023/10/14 01:02:38;;;;;;;12.07;6.13;;;;;;;;;;10290192;28;20068;-64
2023/10/14 01:07:38;;;;;;;9.27;5.68;;;;;;;;;;10294239;28;20084;-64
2023/10/14 01:12:40;;;;;;;7.97;5.45;;;;;;;;;;10290811;28;20075;-65
2023/10/14 01:17:42;;;;;;;11.82;5.00;;;;;;;;;;10287938;28;20090;-65
2023/10/14 01:22:42;;;;;;;12.15;5.15;;;;;;;;;;10290064;28;20048;-65
2023/10/14 01:27:43;;;;;;;7.20;4.50;;;;;;;;;;10289140;28;20076;-65
2023/10/14 01:32:48;;;;;;;8.05;4.97;;;;;;;;;;10290520;28;20087;-65
2023/10/14 01:37:48;;;;;;;11.05;5.07;;;;;;;;;;10289546;28;20072;-65
2023/10/14 01:42:47;;;;;;;13.70;5.00;;;;;;;;;;10288580;28;20518;-64
2023/10/14 01:47:49;;;;;;;11.25;5.22;;;;;;;;;;10292469;28;20466;-65
2023/10/14 01:52:52;;;;;;;8.38;5.22;;;;;;;;;;10287582;28;20072;-64
2023/10/14 01:57:50;;;;;;;12.32;4.82;;;;;;;;;;10289543;28;20064;-65
2023/10/14 02:02:49;;;;;;;10.38;5.38;;;;;;;;;;10288091;28;20095;-65
2023/10/14 02:07:51;;;;;;;10.98;5.60;;;;;;;;;;10289270;28;20401;-65
2023/10/14 02:12:50;;;;;;;14.88;6.75;;;;;;;;;;10290987;28;20081;-65
2023/10/14 02:17:49;;;;;;;14.38;7.45;;;;;;;;;;10288465;28;20076;-65
2023/10/14 02:22:50;;;;;;;15.02;7.68;;;;;;;;;;10291213;28;20068;-65
2023/10/14 02:27:48;;;;;;;15.98;8.02;;;;;;;;;;10288055;28;20068;-65
2023/10/14 02:32:48;;;;;;;15.05;7.82;;;;;;;;;;10289973;28;20064;-65
2023/10/14 02:37:49;;;;;;;19.10;6.45;;;;;;;;;;10291511;28;20064;-65
2023/10/14 02:42:49;;;;;;;13.63;6.18;;;;;;;;;;10289128;28;20076;-65
2023/10/14 02:47:50;;;;;;;13.10;6.15;;;;;;;;;;10287134;28;20078;-65
2023/10/14 02:52:50;;;;;;;14.20;6.32;;;;;;;;;;10289841;28;20526;-65
2023/10/14 02:57:50;;;;;;;10.27;6.72;;;;;;;;;;10288828;28;20068;-65
2023/10/14 03:02:54;;;;;;;14.82;6.90;;;;;;;;;;10290087;28;20470;-65
2023/10/14 03:07:53;;;;;;;;;;;;;;;;;;10289325;28;20072;-65
2023/10/14 03:12:52;;;;;;;17.70;8.38;;;;;;;;;;10289760;28;20008;-65
2023/10/14 03:17:55;;;;;;;16.90;8.85;;;;;;;;;;10293884;28;20076;-65
2023/10/14 03:22:54;;;;;;;15.05;8.25;;;;;;;;;;10293826;28;20075;-64
2023/10/14 03:27:59;;;;;;;16.00;7.30;;;;;;;;;;10290608;28;20091;-65
2023/10/14 03:32:57;;;;;;;16.73;8.82;;;;;;;;;;10294104;28;20068;-64
2023/10/14 03:38:04;;;;;;;22.02;9.55;;;;;;;;;;10293470;28;20091;-64
2023/10/14 03:43:10;;;;;;;19.85;11.00;;;;;;;;;;10294301;28;20095;-64
2023/10/14 03:48:08;;;;;;;18.10;9.60;;;;;;;;;;10294517;28;20075;-65
2023/10/14 03:53:07;;;;;;;13.43;8.48;;;;;;;;;;10297236;28;20068;-64
2023/10/14 03:58:07;;;;;;;12.55;9.52;;;;;;;;;;10294530;28;20076;-64
2023/10/14 04:03:11;;;;;;;14.40;9.02;;;;;;;;;;10294892;28;20465;-64
2023/10/14 04:08:12;;;;;;;14.70;6.40;;;;;;;;;;10293234;28;20107;-65
2023/10/14 04:13:15;;;;;;;16.60;7.03;;;;;;;;;;10287066;28;20076;-64
2023/10/14 04:18:15;;;;;;;17.67;9.07;;;;;;;;;;10293087;28;20076;-65
2023/10/14 04:23:26;;;;;;;17.52;9.68;;;;;;;;;;10282701;28;20083;-64
2023/10/14 04:28:31;;;;;;;20.58;7.85;;;;;;;;;;10282689;28;20061;-63
2023/10/14 04:33:35;;;;;;;14.57;7.80;;;;;;;;;;10286522;28;20514;-62
2023/10/14 04:38:39;;;;;;;16.58;5.55;;;;;;;;;;10279339;28;20068;-65
2023/10/14 04:43:54;;;;;;;20.20;6.93;;;;;;;;;;10289095;28;20533;-65
2023/10/14 04:49:06;;;;;;;14.20;5.75;;;;;;;;;;10290817;28;20591;-64
2023/10/14 04:54:09;;;;;;;15.70;5.30;;;;;;;;;;10287508;28;20080;-65
2023/10/14 04:59:09;;;;;;;14.45;5.32;;;;;;;;;;10285251;28;20076;-65
2023/10/14 05:04:09;;;;;;;9.95;5.25;;;;;;;;;;10285750;28;20086;-65
2023/10/14 05:09:21;;;;;;;14.77;5.65;;;;;;;;;;10290842;28;20458;-65
2023/10/14 05:14:36;;;;;;;11.27;4.78;;;;;;;;;;10276468;28;20075;-65
2023/10/14 05:19:41;;;;;;;18.15;11.05;;;;;;;;;;10273085;28;20072;-65
2023/10/14 05:24:45;;;;;;;17.45;11.23;;;;;;;;;;10288385;28;20064;-65
2023/10/14 05:29:50;;;;;;;28.45;12.20;;;;;;;;;;10288735;28;20538;-65
2023/10/14 05:34:50;;;;;;;43.35;12.93;;;;;;;;;;10286897;28;20076;-65
2023/10/14 05:39:50;;;;;;;24.98;12.82;;;;;;;;;;10287808;28;20079;-64
2023/10/14 05:44:57;;;;;;;17.98;5.82;;;;;;;;;;10288548;28;20503;-65
2023/10/14 05:49:56;;;;;;;13.75;6.85;;;;;;;;;;10288241;28;20091;-65
2023/10/14 05:54:55;;;;;;;10.60;5.70;;;;;;;;;;10290704;28;20075;-66
2023/10/14 05:59:57;;;;;;;18.88;10.60;;;;;;;;;;10289886;28;20079;-64
2023/10/14 06:04:56;;;;;;;21.92;9.48;;;;;;;;;;10272639;28;20068;-65
2023/10/14 06:09:54;;;;;;;24.42;10.73;;;;;;;;;;10290378;28;20100;-65
2023/10/14 06:14:53;;;;;;;31.73;10.45;;;;;;;;;;10291021;28;20081;-65
2023/10/14 06:19:53;;;;;;;14.73;9.32;;;;;;;;;;10289918;28;20037;-65
2023/10/14 06:24:53;;;;;;;19.80;9.90;;;;;;;;;;10267108;28;20064;-65
2023/10/14 06:29:51;;;;;;;31.80;12.00;;;;;;;;;;10273216;28;20072;-65
2023/10/14 06:34:57;;;;;;;25.13;12.50;;;;;;;;;;10283176;28;20526;-65
2023/10/14 06:39:59;;;;;;;21.08;11.15;;;;;;;;;;10276519;28;20071;-66
2023/10/14 06:44:57;;;;;;;26.08;12.70;;;;;;;;;;10277094;28;20073;-66
2023/10/14 06:49:56;;;;;;;21.65;11.10;;;;;;;;;;10291656;28;20069;-66
2023/10/14 06:54:54;;;;;;;17.33;12.18;;;;;;;;;;10295441;28;20111;-65
2023/10/14 06:59:54;;;;;;;27.15;13.05;;;;;;;;;;10296272;28;20431;-65
2023/10/14 07:04:52;;;;;;;28.60;12.30;;;;;;;;;;10297629;28;20088;-66
2023/10/14 07:09:50;;;;;;;21.17;12.35;;;;;;;;;;10297898;28;20101;-65
2023/10/14 07:14:49;;;;;;;24.67;12.02;;;;;;;;;;10297286;28;20091;-65
2023/10/14 07:19:49;;;;;;;23.30;12.57;;;;;;;;;;10294613;28;20177;-65
2023/10/14 07:24:47;;;;;;;22.88;12.27;;;;;;;;;;10296700;28;20462;-65
2023/10/14 07:29:46;;;;;;;34.60;13.32;;;;;;;;;;10296484;28;20072;-65
2023/10/14 07:34:44;;;;;;;28.00;12.43;;;;;;;;;;10295260;28;20064;-65
2023/10/14 07:39:50;;;;;;;21.13;10.32;;;;;;;;;;10294187;28;20449;-65
2023/10/14 07:44:48;;;;;;;30.75;10.27;;;;;;;;;;10293550;28;20493;-66
2023/10/14 07:49:46;;;;;;;16.67;9.10;;;;;;;;;;10293149;28;20096;-65
2023/10/14 07:54:46;;;;;;;19.45;9.43;;;;;;;;;;10296432;28;20088;-65
2023/10/14 07:59:44;;;;;;;20.40;9.30;;;;;;;;;;10294214;28;20077;-66
2023/10/14 08:04:46;;;;;;;21.13;10.52;;;;;;;;;;10294592;28;20072;-65
2023/10/14 08:09:47;;;;;;;22.30;10.50;;;;;;;;;;10292891;28;20478;-65
2023/10/14 08:14:45;;;;;;;25.00;9.85;;;;;;;;;;10292615;28;20060;-66
2023/10/14 08:19:43;;;;;;;23.55;10.95;;;;;;;;;;10292701;28;20072;-64
2023/10/14 08:24:42;;;;;;;25.60;12.30;;;;;;;;;;10294451;28;20064;-64
2023/10/14 08:29:42;;;;;;;23.52;10.55;;;;;;;;;;10294319;28;20076;-64
2023/10/14 08:34:40;;;;;;;24.13;10.65;;;;;;;;;;10291526;28;20080;-64
2023/10/14 08:39:40;;;;;;;28.35;11.23;;;;;;;;;;10293157;28;20068;-65
2023/10/14 08:44:42;;;;;;;24.13;10.82;;;;;;;;;;10289878;28;20190;-65
2023/10/14 08:49:42;;;;;;;30.95;11.68;;;;;;;;;;10290299;28;20068;-65
2023/10/14 08:54:42;;;;;;;25.30;10.48;;;;;;;;;;10291696;28;20083;-65
2023/10/14 08:59:41;;;;;;;25.83;11.10;;;;;;;;;;10288678;28;20068;-65
2023/10/14 09:04:40;;;;;;;24.95;12.23;;;;;;;;;;10292648;28;20068;-65
2023/10/14 09:09:39;;;;;;;32.47;11.38;;;;;;;;;;10283298;28;20081;-65
2023/10/14 09:14:38;;;;;;;32.45;10.95;;;;;;;;;;10284434;28;20118;-66
2023/10/14 09:19:43;;;;;;;24.75;10.07;;;;;;;;;;10285846;28;20450;-67
2023/10/14 09:24:45;;;;;;;25.08;9.35;;;;;;;;;;10289510;28;20075;-67
2023/10/14 09:29:43;;;;;;;27.25;10.93;;;;;;;;;;10288783;28;20080;-66
2023/10/14 09:34:42;;;;;;;19.23;9.05;;;;;;;;;;10288864;28;20079;-67
2023/10/14 09:39:44;;;;;;;23.70;8.60;;;;;;;;;;10291325;28;20064;-66
2023/10/14 09:44:44;;;;;;;18.33;8.98;;;;;;;;;;10290651;28;20079;-66
2023/10/14 09:49:44;;;;;;;21.23;9.15;;;;;;;;;;10290168;28;20457;-65
2023/10/14 09:54:44;;;;;;;14.07;6.25;;;;;;;;;;10290201;28;20083;-67
2023/10/14 09:59:46;;;;;;;13.18;4.72;;;;;;;;;;10289784;28;20066;-65
2023/10/14 10:04:47;;;;;;;9.68;4.43;;;;;;;;;;10289379;28;20106;-67
2023/10/14 10:09:57;;;;;;;7.68;4.53;;;;;;;;;;10290067;28;20064;-66
2023/10/14 10:15:01;;;;;;;9.93;4.47;;;;;;;;;;10290383;28;20076;-66
2023/10/14 10:20:08;;;;;;;11.50;3.75;;;;;;;;;;10288495;28;20080;-66
2023/10/14 10:25:09;;;;;;;9.68;3.83;;;;;;;;;;10295058;28;20068;-66
2023/10/14 10:30:13;;;;;;;12.35;4.20;;;;;;;;;;10295862;28;20086;-67
2023/10/14 10:35:16;;;;;;;8.52;3.50;;;;;;;;;;10298035;28;20077;-65
2023/10/14 10:40:16;;;;;;;11.68;3.42;;;;;;;;;;10297753;28;20072;-66
2023/10/14 10:45:20;;;;;;;6.32;3.88;;;;;;;;;;10296027;28;20060;-66
2023/10/14 10:50:19;;;;;;;11.32;4.60;;;;;;;;;;10296132;28;20076;-66
2023/10/14 10:55:18;;;;;;;9.88;4.70;;;;;;;;;;10296648;28;20069;-65
2023/10/14 11:00:18;;;;;;;9.90;4.30;;;;;;;;;;10293896;28;20324;-67
2023/10/14 11:05:20;;;;;;;6.80;3.22;;;;;;;;;;10292381;28;20475;-66
2023/10/14 11:10:18;;;;;;;7.57;3.10;;;;;;;;;;10297336;28;20072;-67
2023/10/14 11:15:21;;;;;;;8.35;3.33;;;;;;;;;;10296848;28;20084;-65
2023/10/14 11:20:20;;;;;;;7.28;3.75;;;;;;;;;;10298375;28;20144;-66
2023/10/14 11:25:19;;;;;;;11.80;3.80;;;;;;;;;;10295651;28;20083;-65
2023/10/14 11:30:27;;;;;;;10.00;4.13;;;;;;;;;;10295769;28;20068;-66
2023/10/14 11:35:28;;;;;;;6.80;3.33;;;;;;;;;;10295101;28;20068;-67
2023/10/14 11:40:33;;;;;;;5.47;3.83;;;;;;;;;;10293437;28;20087;-66
2023/10/14 11:45:33;;;;;;;6.25;3.30;;;;;;;;;;10294935;28;20081;-67
2023/10/14 11:50:32;;;;;;;7.65;3.10;;;;;;;;;;10296652;28;20072;-66
2023/10/14 11:55:30;;;;;;;6.30;3.47;;;;;;;;;;10294902;28;20053;-66
2023/10/14 12:00:30;;;;;;;8.68;3.67;;;;;;;;;;10294497;28;20076;-64
2023/10/14 12:05:39;;;;;;;6.65;3.50;;;;;;;;;;10292832;28;20068;-65
2023/10/14 12:10:37;;;;;;;11.70;3.40;;;;;;;;;;10294137;28;20502;-65
2023/10/14 12:15:36;;;;;;;8.23;3.42;;;;;;;;;;10293647;28;20080;-66
2023/10/14 12:20:35;;;;;;;14.82;3.80;;;;;;;;;;10293783;28;20478;-67
2023/10/14 12:25:34;;;;;;;5.80;3.28;;;;;;;;;;10293706;28;20072;-66
2023/10/14 12:30:39;;;;;;;9.65;4.00;;;;;;;;;;10291787;28;20080;-66
2023/10/14 12:35:40;;;;;;;10.75;3.50;;;;;;;;;;10292680;28;20072;-66
2023/10/14 12:40:39;;;;;;;14.25;3.53;;;;;;;;;;10291386;28;20132;-66
2023/10/14 12:45:38;;;;;;;10.80;4.22;;;;;;;;;;10291904;28;20067;-66
2023/10/14 12:50:40;;;;;;;8.18;3.60;;;;;;;;;;10292987;28;20514;-66
2023/10/14 12:55:44;;;;;;;13.45;3.30;;;;;;;;;;10292415;28;20091;-66
2023/10/14 13:00:42;;;;;;;;;;;;;;;;;;10292559;28;20076;-65
2023/10/14 13:05:46;;;;;;;6.43;3.55;;;;;;;;;;10290746;28;19963;-65
2023/10/14 13:10:46;;;;;;;11.68;3.50;;;;;;;;;;10291401;28;20072;-66
2023/10/14 13:15:45;;;;;;;10.00;3.88;;;;;;;;;;10292695;28;20088;-65
2023/10/14 13:20:47;;;;;;;9.68;3.55;;;;;;;;;;10290791;28;20068;-66
2023/10/14 13:25:49;;;;;;;11.02;3.63;;;;;;;;;;10291516;28;20080;-66
2023/10/14 13:30:47;;;;;;;9.13;4.07;;;;;;;;;;10290685;28;20060;-66
2023/10/14 13:35:46;;;;;;;11.80;3.92;;;;;;;;;;10291916;28;20060;-66
2023/10/14 13:40:44;;;;;;;12.75;3.92;;;;;;;;;;10288728;28;20082;-66
2023/10/14 13:45:48;;;;;;;13.60;4.05;;;;;;;;;;10290008;28;20508;-65
2023/10/14 13:50:46;;;;;;;6.35;4.00;;;;;;;;;;10291922;28;20064;-66
2023/10/14 13:55:45;;;;;;;8.65;3.88;;;;;;;;;;10290210;28;20068;-66
2023/10/14 14:00:49;;;;;;;8.90;3.30;;;;;;;;;;10289972;28;20068;-65
2023/10/14 14:05:51;;;;;;;15.30;4.55;;;;;;;;;;10289326;28;20071;-65
2023/10/14 14:10:50;;;;;;;10.55;4.35;;;;;;;;;;10291066;28;20077;-65
2023/10/14 14:15:51;;;;;;;8.05;3.42;;;;;;;;;;10285778;28;20084;-65
2023/10/14 14:20:49;;;;;;;20.35;4.25;;;;;;;;;;10284574;28;20072;-66
2023/10/14 14:25:48;;;;;;;9.63;4.03;;;;;;;;;;10285846;28;20084;-65
2023/10/14 14:30:49;;;;;;;12.00;4.05;;;;;;;;;;10278483;28;20069;-64
2023/10/14 14:35:51;;;;;;;7.90;3.33;;;;;;;;;;10279489;28;20505;-65
2023/10/14 14:40:50;;;;;;;8.43;4.05;;;;;;;;;;10280222;28;20068;-65
2023/10/14 14:45:49;;;;;;;17.90;5.15;;;;;;;;;;10281392;28;20072;-66
2023/10/14 14:50:48;;;;;;;14.68;4.40;;;;;;;;;;10285572;28;20063;-67
2023/10/14 14:55:50;;;;;;;7.80;4.40;;;;;;;;;;10284365;28;20068;-65
2023/10/14 15:00:48;;;;;;;6.78;3.85;;;;;;;;;;10290223;28;20067;-66
2023/10/14 15:05:51;;;;;;;15.48;4.70;;;;;;;;;;10288982;28;20065;-65
2023/10/14 15:10:54;;;;;;;10.90;4.38;;;;;;;;;;10289195;28;20095;-65
2023/10/14 15:15:56;;;;;;;12.53;4.13;;;;;;;;;;10293288;28;20071;-65
2023/10/14 15:20:55;;;;;;;13.80;4.13;;;;;;;;;;10294569;28;20061;-65
2023/10/14 15:25:55;;;;;;;12.52;4.00;;;;;;;;;;10294046;28;20099;-65
2023/10/14 15:30:54;;;;;;;9.80;4.38;;;;;;;;;;10295618;28;20068;-65
2023/10/14 15:35:53;;;;;;;13.43;4.20;;;;;;;;;;10296136;28;20069;-65
2023/10/14 15:40:52;;;;;;;12.27;4.15;;;;;;;;;;10295370;28;20078;-65
2023/10/14 15:45:58;;;;;;;7.80;3.85;;;;;;;;;;10292817;28;20068;-65
2023/10/14 15:50:56;;;;;;;13.45;3.67;;;;;;;;;;10293780;28;20076;-64
2023/10/14 15:55:56;;;;;;;7.40;3.85;;;;;;;;;;10293335;28;20084;-65
2023/10/14 16:00:57;;;;;;;11.30;4.40;;;;;;;;;;10294789;28;20075;-66
2023/10/14 16:05:56;;;;;;;9.82;3.97;;;;;;;;;;10292121;28;20087;-66
2023/10/14 16:10:55;;;;;;;16.50;4.72;;;;;;;;;;10295103;28;20236;-66
2023/10/14 16:15:55;;;;;;;9.43;4.45;;;;;;;;;;10292865;28;20087;-65
2023/10/14 16:20:55;;;;;;;7.07;3.78;;;;;;;;;;10293445;28;20067;-65
2023/10/14 16:25:53;;;;;;;8.70;5.32;;;;;;;;;;10293256;28;20314;-66
2023/10/14 16:30:51;;;;;;;9.13;3.63;;;;;;;;;;10290568;28;20073;-66
2023/10/14 16:35:50;;;;;;;9.38;3.85;;;;;;;;;;10292651;28;20080;-65
2023/10/14 16:40:50;;;;;;;10.10;5.20;;;;;;;;;;10293982;28;20076;-66
2023/10/14 16:45:49;;;;;;;7.43;4.45;;;;;;;;;;10292155;28;20083;-66
2023/10/14 16:50:47;;;;;;;11.18;3.75;;;;;;;;;;10292707;28;20478;-66
2023/10/14 16:55:45;;;;;;;16.70;5.10;;;;;;;;;;10290754;28;20087;-65
2023/10/14 17:00:48;;;;;;;13.15;5.10;;;;;;;;;;10292803;28;20463;-66
2023/10/14 17:05:46;;;;;;;10.25;3.40;;;;;;;;;;10291855;28;20076;-64
2023/10/14 17:10:45;;;;;;;10.77;3.58;;;;;;;;;;10292960;28;20079;-66
2023/10/14 17:15:46;;;;;;;11.10;3.95;;;;;;;;;;10291814;28;20084;-66
2023/10/14 17:20:45;;;;;;;5.10;4.15;;;;;;;;;;10290107;28;20595;-66
2023/10/14 17:25:43;;;;;;;12.52;4.50;;;;;;;;;;10287911;28;20080;-65
2023/10/14 17:30:41;;;;;;;9.70;4.90;;;;;;;;;;10291126;28;20071;-66
2023/10/14 17:35:43;;;;;;;9.77;4.20;;;;;;;;;;10289763;28;20068;-65
2023/10/14 17:40:42;;;;;;;7.82;3.35;;;;;;;;;;10291682;28;20131;-66
2023/10/14 17:45:40;;;;;;;15.70;4.05;;;;;;;;;;10291324;28;20064;-65
2023/10/14 17:50:42;;;;;;;8.60;3.92;;;;;;;;;;10288515;28;20060;-66
2023/10/14 17:55:44;;;;;;;6.65;3.60;;;;;;;;;;10289316;28;20094;-64
2023/10/14 18:00:43;;;;;;;14.98;5.75;;;;;;;;;;10288626;28;20064;-65
2023/10/14 18:05:45;;;;;;;6.22;4.38;;;;;;;;;;10287793;28;20063;-65
2023/10/14 18:10:44;;;;;;;11.45;3.50;;;;;;;;;;10287790;28;20075;-65
2023/10/14 18:15:43;;;;;;;15.10;4.10;;;;;;;;;;10291371;28;20084;-65
2023/10/14 18:20:45;;;;;;;7.80;3.55;;;;;;;;;;10289279;28;20076;-65
2023/10/14 18:25:48;;;;;;;9.52;4.15;;;;;;;;;;10291788;28;20072;-65
2023/10/14 18:30:48;;;;;;;7.22;3.85;;;;;;;;;;10288065;28;20533;-66
2023/10/14 18:35:49;;;;;;;11.45;3.53;;;;;;;;;;10290428;28;20456;-65
2023/10/14 18:40:48;;;;;;;6.95;3.25;;;;;;;;;;10288540;28;20475;-66
2023/10/14 18:45:46;;;;;;;10.27;3.88;;;;;;;;;;10292177;28;20071;-65
2023/10/14 18:50:45;;;;;;;4.03;3.08;;;;;;;;;;10297458;28;20090;-65
2023/10/14 18:55:49;;;;;;;8.10;3.95;;;;;;;;;;10297882;28;20079;-65
2023/10/14 19:00:48;;;;;;;10.45;3.72;;;;;;;;;;10295856;28;20080;-66
2023/10/14 19:05:46;;;;;;;5.30;3.28;;;;;;;;;;10297171;28;20525;-64
2023/10/14 19:10:48;;;;;;;11.32;4.00;;;;;;;;;;10296250;28;20076;-65
2023/10/14 19:15:53;;;;;;;9.75;4.30;;;;;;;;;;10295758;28;20179;-64
2023/10/14 19:20:52;;;;;;;6.80;3.72;;;;;;;;;;10296270;28;20068;-64
2023/10/14 19:25:52;;;;;;;13.43;3.60;;;;;;;;;;10295847;28;20072;-65
2023/10/14 19:30:52;;;;;;;10.68;4.13;;;;;;;;;;10295728;28;20068;-65
2023/10/14 19:35:53;;;;;;;13.65;4.85;;;;;;;;;;10292997;28;20486;-66
2023/10/14 19:40:59;;;;;;;6.30;4.05;;;;;;;;;;10293372;28;20553;-64
2023/10/14 19:46:00;;;;;;;7.97;3.55;;;;;;;;;;10294667;28;20068;-65
2023/10/14 19:51:05;;;;;;;10.20;4.15;;;;;;;;;;10296353;28;20076;-66
2023/10/14 19:56:03;;;;;;;5.18;4.00;;;;;;;;;;10293778;28;20086;-65
2023/10/14 20:01:08;;;;;;;8.48;4.53;;;;;;;;;;10294199;28;20079;-65
2023/10/14 20:06:11;;;;;;;9.00;3.92;;;;;;;;;;10294370;28;20076;-65
2023/10/14 20:11:10;;;;;;;11.68;4.05;;;;;;;;;;10294522;28;20071;-65
2023/10/14 20:16:11;;;;;;;16.67;3.95;;;;;;;;;;10293805;28;20084;-65
2023/10/14 20:21:11;;;;;;;7.28;3.00;;;;;;;;;;10295436;28;20080;-65
2023/10/14 20:26:09;;;;;;;8.52;3.50;;;;;;;;;;10293042;28;20068;-65
2023/10/14 20:31:11;;;;;;;8.57;4.10;;;;;;;;;;10291881;28;20083;-65
2023/10/14 20:36:10;;;;;;;7.95;3.88;;;;;;;;;;10291732;28;20497;-65
2023/10/14 20:41:11;;;;;;;10.98;3.95;;;;;;;;;;10291571;28;20479;-64
2023/10/14 20:46:11;;;;;;;11.07;4.18;;;;;;;;;;10291156;28;20072;-64
2023/10/14 20:51:12;;;;;;;11.02;3.83;;;;;;;;;;10293995;28;20075;-64
2023/10/14 20:56:13;;;;;;;12.50;3.60;;;;;;;;;;10293399;28;20522;-65
2023/10/14 21:01:14;;;;;;;5.55;3.65;;;;;;;;;;10292815;28;20069;-65
2023/10/14 21:06:14;;;;;;;8.45;4.03;;;;;;;;;;10291220;28;20076;-64
2023/10/14 21:11:13;;;;;;;11.80;4.03;;;;;;;;;;10291466;28;20068;-65
2023/10/14 21:16:11;;;;;;;7.45;3.25;;;;;;;;;;10291446;28;20076;-65
2023/10/14 21:21:15;;;;;;;8.70;4.05;;;;;;;;;;10291414;28;20060;-64
2023/10/14 21:26:14;;;;;;;6.80;5.43;;;;;;;;;;10289803;28;20079;-64
2023/10/14 21:31:12;;;;;;;12.32;4.25;;;;;;;;;;10290951;28;20068;-63
2023/10/14 21:36:16;;;;;;;6.18;3.47;;;;;;;;;;10291664;28;20084;-66
2023/10/14 21:41:16;;;;;;;6.57;3.57;;;;;;;;;;10289385;28;20087;-65
2023/10/14 21:46:16;;;;;;;9.90;3.38;;;;;;;;;;10292221;28;20099;-64
2023/10/14 21:51:16;;;;;;;8.98;3.58;;;;;;;;;;10288037;28;20470;-65
2023/10/14 21:56:14;;;;;;;10.55;4.07;;;;;;;;;;10291468;28;20481;-66
2023/10/14 22:01:14;;;;;;;5.63;2.95;;;;;;;;;;10291127;28;20099;-64
2023/10/14 22:06:12;;;;;;;4.88;2.80;;;;;;;;;;10288201;28;20340;-64
2023/10/14 22:11:13;;;;;;;5.95;3.35;;;;;;;;;;10287657;28;20080;-64
2023/10/14 22:16:11;;;;;;;9.82;3.65;;;;;;;;;;10291054;28;20091;-63
2023/10/14 22:21:16;;;;;;;10.23;3.17;;;;;;;;;;10299958;28;20081;-63
2023/10/14 22:26:16;;;;;;;4.03;2.92;;;;;;;;;;10299742;28;20366;-64
2023/10/14 22:31:15;;;;;;;10.45;3.25;;;;;;;;;;10305098;28;20076;-65
2023/10/14 22:36:14;;;;;;;6.47;3.17;;;;;;;;;;10302900;28;20478;-65
2023/10/14 22:41:13;;;;;;;6.53;3.10;;;;;;;;;;10304341;28;20048;-65
2023/10/14 22:46:15;;;;;;;6.32;3.38;;;;;;;;;;10302912;28;20095;-64
2023/10/14 22:51:16;;;;;;;6.93;3.42;;;;;;;;;;10300908;28;20067;-65
2023/10/14 22:56:15;;;;;;;14.63;2.95;;;;;;;;;;10301829;28;20114;-65
2023/10/14 23:01:17;;;;;;;5.25;2.95;;;;;;;;;;10302920;28;20072;-64
2023/10/14 23:06:22;;;;;;;6.75;3.28;;;;;;;;;;10303060;28;20079;-65
2023/10/14 23:11:20;;;;;;;10.85;3.42;;;;;;;;;;10301037;28;20103;-65
2023/10/14 23:16:20;;;;;;;6.07;3.60;;;;;;;;;;10301958;28;20486;-64
2023/10/14 23:21:18;;;;;;;8.75;3.63;;;;;;;;;;10303881;28;20068;-64
2023/10/14 23:26:17;;;;;;;6.60;3.13;;;;;;;;;;10301516;28;20079;-64
2023/10/14 23:31:15;;;;;;;7.88;3.35;;;;;;;;;;10296760;28;20079;-64
2023/10/14 23:36:16;;;;;;;5.32;3.28;;;;;;;;;;10294750;28;20092;-64
2023/10/14 23:41:14;;;;;;;5.95;3.00;;;;;;;;;;10296751;28;20076;-64
2023/10/14 23:46:12;;;;;;;4.70;2.67;;;;;;;;;;10296152;28;20071;-63
2023/10/14 23:51:10;;;;;;;4.35;2.88;;;;;;;;;;10296011;28;20072;-63
2023/10/14 23:56:13;;;;;;;8.88;2.50;;;;;;;;;;10295317;28;20076;-64
